sensor_id;sensor_type;location;lat;lon;timestamp;pressure;altitude;pressure_sealevel;temperature;humidity
82743;BME280;72483;50.656;7.216;2023-09-18T00:01:43;100123.94;;;26.18;57.04
82743;BME280;72483;50.656;7.216;2023-09-18T00:04:09;100123.56;;;26.20;57.04
82743;BME280;72483;50.656;7.216;2023-09-18T00:06:36;100113.47;;;26.19;57.01
82743;BME280;72483;50.656;7.216;2023-09-18T00:09:02;100106.50;;;26.16;56.75
82743;BME280;72483;50.656;7.216;2023-09-18T00:11:29;100104.19;;;26.18;56.69
82743;BME280;72483;50.656;7.216;2023-09-18T00:13:57;100102.53;;;26.17;56.84
82743;BME280;72483;50.656;7.216;2023-09-18T00:16:23;100092.28;;;26.13;56.99
82743;BME280;72483;50.656;7.216;2023-09-18T00:18:52;100082.16;;;26.12;57.04
82743;BME280;72483;50.656;7.216;2023-09-18T00:21:18;100073.31;;;26.13;57.49
82743;BME280;72483;50.656;7.216;2023-09-18T00:23:45;100077.47;;;26.16;57.06
82743;BME280;72483;50.656;7.216;2023-09-18T00:26:12;100065.34;;;26.15;57.11
82743;BME280;72483;50.656;7.216;2023-09-18T00:28:38;100069.31;;;26.14;56.71
82743;BME280;72483;50.656;7.216;2023-09-18T00:31:06;100071.31;;;26.14;56.87
82743;BME280;72483;50.656;7.216;2023-09-18T00:33:33;100070.97;;;26.15;56.70
82743;BME280;72483;50.656;7.216;2023-09-18T00:35:59;100074.16;;;26.14;57.01
82743;BME280;72483;50.656;7.216;2023-09-18T00:38:26;100069.31;;;26.14;57.19
82743;BME280;72483;50.656;7.216;2023-09-18T00:40:52;100065.94;;;26.09;56.88
82743;BME280;72483;50.656;7.216;2023-09-18T00:43:19;100074.75;;;26.07;56.91
82743;BME280;72483;50.656;7.216;2023-09-18T00:45:47;100069.94;;;26.08;56.69
82743;BME280;72483;50.656;7.216;2023-09-18T00:48:16;100066.78;;;26.09;57.20
82743;BME280;72483;50.656;7.216;2023-09-18T00:50:43;100066.41;;;26.11;56.92
82743;BME280;72483;50.656;7.216;2023-09-18T00:53:13;100059.03;;;26.06;57.32
82743;BME280;72483;50.656;7.216;2023-09-18T00:55:41;100047.25;;;26.04;57.12
82743;BME280;72483;50.656;7.216;2023-09-18T00:58:07;100044.41;;;26.04;56.98
82743;BME280;72483;50.656;7.216;2023-09-18T01:00:34;100041.25;;;26.06;57.03
82743;BME280;72483;50.656;7.216;2023-09-18T01:03:01;100043.25;;;26.05;56.91
82743;BME280;72483;50.656;7.216;2023-09-18T01:05:30;100041.59;;;26.04;56.80
82743;BME280;72483;50.656;7.216;2023-09-18T01:07:57;100039.16;;;26.03;57.25
82743;BME280;72483;50.656;7.216;2023-09-18T01:10:47;100038.78;;;26.04;56.98
82743;BME280;72483;50.656;7.216;2023-09-18T01:13:19;100032.69;;;26.02;56.98
82743;BME280;72483;50.656;7.216;2023-09-18T01:15:54;100043.97;;;26.02;56.98
82743;BME280;72483;50.656;7.216;2023-09-18T01:18:21;100044.78;;;26.03;56.93
82743;BME280;72483;50.656;7.216;2023-09-18T01:20:49;100045.84;;;25.98;57.08
82743;BME280;72483;50.656;7.216;2023-09-18T01:23:17;100041.03;;;25.98;57.27
82743;BME280;72483;50.656;7.216;2023-09-18T01:25:43;100035.41;;;25.98;56.89
82743;BME280;72483;50.656;7.216;2023-09-18T01:28:10;100035.06;;;26.00;57.29
82743;BME280;72483;50.656;7.216;2023-09-18T01:30:36;100023.75;;;26.00;57.04
82743;BME280;72483;50.656;7.216;2023-09-18T01:33:03;100028.19;;;26.01;57.13
82743;BME280;72483;50.656;7.216;2023-09-18T01:35:31;100020.13;;;25.99;56.81
82743;BME280;72483;50.656;7.216;2023-09-18T01:37:59;100015.19;;;25.96;57.26
82743;BME280;72483;50.656;7.216;2023-09-18T01:40:27;100012.81;;;25.98;57.24
82743;BME280;72483;50.656;7.216;2023-09-18T01:42:54;100020.47;;;25.98;57.19
82743;BME280;72483;50.656;7.216;2023-09-18T01:45:20;100014.34;;;25.96;57.14
82743;BME280;72483;50.656;7.216;2023-09-18T01:47:47;100016.34;;;25.95;57.24
82743;BME280;72483;50.656;7.216;2023-09-18T01:50:13;100023.16;;;25.94;57.38
82743;BME280;72483;50.656;7.216;2023-09-18T01:52:40;100037.66;;;25.93;57.28
82743;BME280;72483;50.656;7.216;2023-09-18T01:55:07;100057.75;;;25.91;57.25
82743;BME280;72483;50.656;7.216;2023-09-18T01:57:35;100054.59;;;25.93;57.33
82743;BME280;72483;50.656;7.216;2023-09-18T02:00:03;100052.59;;;25.93;57.33
82743;BME280;72483;50.656;7.216;2023-09-18T02:02:33;100054.59;;;25.93;57.51
82743;BME280;72483;50.656;7.216;2023-09-18T02:04:59;100052.59;;;25.93;57.82
82743;BME280;72483;50.656;7.216;2023-09-18T02:07:26;100047.66;;;25.90;57.99
82743;BME280;72483;50.656;7.216;2023-09-18T02:09:52;100051.66;;;25.89;57.40
82743;BME280;72483;50.656;7.216;2023-09-18T02:12:19;100048.00;;;25.89;57.57
82743;BME280;72483;50.656;7.216;2023-09-18T02:14:46;100048.00;;;25.89;58.13
82743;BME280;72483;50.656;7.216;2023-09-18T02:17:13;100037.09;;;25.87;58.38
82743;BME280;72483;50.656;7.216;2023-09-18T02:19:39;100043.19;;;25.89;57.86
82743;BME280;72483;50.656;7.216;2023-09-18T02:22:06;100024.59;;;25.88;57.40
82743;BME280;72483;50.656;7.216;2023-09-18T02:24:32;100008.88;;;25.87;57.89
82743;BME280;72483;50.656;7.216;2023-09-18T02:26:59;99997.94;;;25.86;57.67
82743;BME280;72483;50.656;7.216;2023-09-18T02:29:25;99963.63;;;25.84;57.24
82743;BME280;72483;50.656;7.216;2023-09-18T02:31:53;99937.84;;;25.85;57.38
82743;BME280;72483;50.656;7.216;2023-09-18T02:34:20;99937.03;;;25.85;57.95
82743;BME280;72483;50.656;7.216;2023-09-18T02:36:46;99931.03;;;25.86;57.59
82743;BME280;72483;50.656;7.216;2023-09-18T02:39:13;99928.22;;;25.86;57.73
82743;BME280;72483;50.656;7.216;2023-09-18T02:41:40;99912.09;;;25.87;57.17
82743;BME280;72483;50.656;7.216;2023-09-18T02:44:06;99878.97;;;25.84;57.84
82743;BME280;72483;50.656;7.216;2023-09-18T02:46:33;99887.06;;;25.85;57.80
82743;BME280;72483;50.656;7.216;2023-09-18T02:49:00;99898.00;;;25.87;57.19
82743;BME280;72483;50.656;7.216;2023-09-18T02:51:27;99904.00;;;25.85;57.40
82743;BME280;72483;50.656;7.216;2023-09-18T02:53:54;99898.72;;;25.84;57.86
82743;BME280;72483;50.656;7.216;2023-09-18T02:56:20;99904.81;;;25.86;57.13
82743;BME280;72483;50.656;7.216;2023-09-18T02:58:47;99918.47;;;25.84;57.87
82743;BME280;72483;50.656;7.216;2023-09-18T03:01:13;99917.16;;;25.81;57.72
82743;BME280;72483;50.656;7.216;2023-09-18T03:03:40;99913.16;;;25.82;57.35
82743;BME280;72483;50.656;7.216;2023-09-18T03:06:09;99914.72;;;25.80;57.86
82743;BME280;72483;50.656;7.216;2023-09-18T03:08:35;99932.91;;;25.82;57.46
82743;BME280;72483;50.656;7.216;2023-09-18T03:11:02;99935.75;;;25.82;57.27
82743;BME280;72483;50.656;7.216;2023-09-18T03:13:31;99929.66;;;25.80;57.72
82743;BME280;72483;50.656;7.216;2023-09-18T03:15:58;99947.75;;;25.79;57.82
82743;BME280;72483;50.656;7.216;2023-09-18T03:18:24;99928.81;;;25.80;57.40
82743;BME280;72483;50.656;7.216;2023-09-18T03:20:51;99930.00;;;25.79;57.55
82743;BME280;72483;50.656;7.216;2023-09-18T03:23:18;99932.47;;;25.80;57.68
82743;BME280;72483;50.656;7.216;2023-09-18T03:25:45;99930.09;;;25.82;57.47
82743;BME280;72483;50.656;7.216;2023-09-18T03:28:11;99937.75;;;25.82;57.53
82743;BME280;72483;50.656;7.216;2023-09-18T03:30:38;99942.47;;;25.78;57.36
82743;BME280;72483;50.656;7.216;2023-09-18T03:33:04;99944.94;;;25.79;57.71
82743;BME280;72483;50.656;7.216;2023-09-18T03:35:31;99932.81;;;25.79;57.19
82743;BME280;72483;50.656;7.216;2023-09-18T03:37:58;99929.16;;;25.78;57.39
82743;BME280;72483;50.656;7.216;2023-09-18T03:40:26;99923.91;;;25.77;57.54
82743;BME280;72483;50.656;7.216;2023-09-18T03:42:52;99925.56;;;25.78;57.66
82743;BME280;72483;50.656;7.216;2023-09-18T03:45:19;99920.25;;;25.76;57.42
82743;BME280;72483;50.656;7.216;2023-09-18T03:47:46;99920.63;;;25.75;57.34
82743;BME280;72483;50.656;7.216;2023-09-18T03:50:15;99917.44;;;25.76;57.16
82743;BME280;72483;50.656;7.216;2023-09-18T03:52:41;99917.81;;;25.75;57.47
82743;BME280;72483;50.656;7.216;2023-09-18T03:55:08;99919.44;;;25.76;57.32
82743;BME280;72483;50.656;7.216;2023-09-18T03:57:36;99922.25;;;25.76;57.59
82743;BME280;72483;50.656;7.216;2023-09-18T04:00:04;99904.50;;;25.75;57.38
82743;BME280;72483;50.656;7.216;2023-09-18T04:02:32;99907.69;;;25.74;57.48
82743;BME280;72483;50.656;7.216;2023-09-18T04:04:59;99905.22;;;25.72;58.27
82743;BME280;72483;50.656;7.216;2023-09-18T04:07:26;99903.22;;;25.73;57.86
82743;BME280;72483;50.656;7.216;2023-09-18T04:09:52;99917.31;;;25.73;57.93
82743;BME280;72483;50.656;7.216;2023-09-18T04:12:19;99929.00;;;25.71;58.43
82743;BME280;72483;50.656;7.216;2023-09-18T04:14:46;99943.09;;;25.71;57.92
82743;BME280;72483;50.656;7.216;2023-09-18T04:17:13;99922.16;;;25.72;57.31
82743;BME280;72483;50.656;7.216;2023-09-18T04:19:40;99933.09;;;25.74;57.11
82743;BME280;72483;50.656;7.216;2023-09-18T04:22:08;99929.44;;;25.73;57.80
82743;BME280;72483;50.656;7.216;2023-09-18T04:24:35;99925.78;;;25.73;57.44
82743;BME280;72483;50.656;7.216;2023-09-18T04:27:01;99922.97;;;25.73;57.63
82743;BME280;72483;50.656;7.216;2023-09-18T04:29:28;99914.06;;;25.71;57.71
82743;BME280;72483;50.656;7.216;2023-09-18T04:31:56;99902.78;;;25.71;57.42
82743;BME280;72483;50.656;7.216;2023-09-18T04:34:23;99887.03;;;25.70;57.43
82743;BME280;72483;50.656;7.216;2023-09-18T04:36:50;99890.66;;;25.70;57.23
82743;BME280;72483;50.656;7.216;2023-09-18T04:39:16;99884.56;;;25.68;57.19
82743;BME280;72483;50.656;7.216;2023-09-18T04:41:42;99887.03;;;25.70;57.21
82743;BME280;72483;50.656;7.216;2023-09-18T04:44:09;99867.28;;;25.70;57.35
82743;BME280;72483;50.656;7.216;2023-09-18T04:46:38;99874.09;;;25.69;57.34
82743;BME280;72483;50.656;7.216;2023-09-18T04:49:05;99878.94;;;25.68;57.50
82743;BME280;72483;50.656;7.216;2023-09-18T04:51:32;99882.53;;;25.69;57.42
82743;BME280;72483;50.656;7.216;2023-09-18T04:53:59;99871.25;;;25.69;57.30
82743;BME280;72483;50.656;7.216;2023-09-18T04:56:25;99875.28;;;25.68;57.51
82743;BME280;72483;50.656;7.216;2023-09-18T04:58:52;99874.47;;;25.67;57.79
82743;BME280;72483;50.656;7.216;2023-09-18T05:01:18;99871.63;;;25.67;57.15
82743;BME280;72483;50.656;7.216;2023-09-18T05:03:45;99870.00;;;25.66;57.09
82743;BME280;72483;50.656;7.216;2023-09-18T05:06:15;99883.25;;;25.66;57.60
82743;BME280;72483;50.656;7.216;2023-09-18T05:08:42;99901.00;;;25.66;57.28
82743;BME280;72483;50.656;7.216;2023-09-18T05:11:08;99896.19;;;25.67;57.10
82743;BME280;72483;50.656;7.216;2023-09-18T05:13:34;99901.00;;;25.66;57.07
82743;BME280;72483;50.656;7.216;2023-09-18T05:16:01;99887.75;;;25.67;57.05
82743;BME280;72483;50.656;7.216;2023-09-18T05:18:28;99888.47;;;25.64;57.01
82743;BME280;72483;50.656;7.216;2023-09-18T05:20:55;99896.56;;;25.65;57.04
82743;BME280;72483;50.656;7.216;2023-09-18T05:23:23;99918.31;;;25.65;57.13
82743;BME280;72483;50.656;7.216;2023-09-18T05:25:50;99900.56;;;25.64;56.99
82743;BME280;72483;50.656;7.216;2023-09-18T05:28:16;99891.28;;;25.64;57.24
82743;BME280;72483;50.656;7.216;2023-09-18T05:30:42;99914.66;;;25.64;57.28
82743;BME280;72483;50.656;7.216;2023-09-18T05:33:09;99912.19;;;25.63;57.05
82743;BME280;72483;50.656;7.216;2023-09-18T05:35:39;99907.75;;;25.62;57.69
82743;BME280;72483;50.656;7.216;2023-09-18T05:38:06;99899.28;;;25.62;57.33
82743;BME280;72483;50.656;7.216;2023-09-18T05:40:35;99910.19;;;25.63;57.30
82743;BME280;72483;50.656;7.216;2023-09-18T05:43:02;99912.19;;;25.63;57.37
82743;BME280;72483;50.656;7.216;2023-09-18T05:45:28;99898.91;;;25.63;57.22
82743;BME280;72483;50.656;7.216;2023-09-18T05:47:56;99912.19;;;25.63;57.49
82743;BME280;72483;50.656;7.216;2023-09-18T05:50:29;99913.03;;;25.63;57.32
82743;BME280;72483;50.656;7.216;2023-09-18T05:52:57;99946.88;;;25.63;57.41
82743;BME280;72483;50.656;7.216;2023-09-18T05:55:25;99952.88;;;25.62;57.62
82743;BME280;72483;50.656;7.216;2023-09-18T05:57:53;99969.81;;;25.62;57.49
82743;BME280;72483;50.656;7.216;2023-09-18T06:00:20;99971.44;;;25.63;56.70
82743;BME280;72483;50.656;7.216;2023-09-18T06:02:47;99975.06;;;25.63;57.21
82743;BME280;72483;50.656;7.216;2023-09-18T06:05:14;99968.59;;;25.63;57.29
82743;BME280;72483;50.656;7.216;2023-09-18T06:07:41;99961.34;;;25.62;57.16
82743;BME280;72483;50.656;7.216;2023-09-18T06:10:09;99954.88;;;25.61;57.43
82743;BME280;72483;50.656;7.216;2023-09-18T06:12:38;99955.69;;;25.62;56.93
82743;BME280;72483;50.656;7.216;2023-09-18T06:15:07;99960.53;;;25.61;57.36
82743;BME280;72483;50.656;7.216;2023-09-18T06:17:35;99970.16;;;25.60;57.13
82743;BME280;72483;50.656;7.216;2023-09-18T06:20:02;99973.78;;;25.61;57.17
82743;BME280;72483;50.656;7.216;2023-09-18T06:22:29;99964.50;;;25.60;57.32
82743;BME280;72483;50.656;7.216;2023-09-18T06:24:56;99985.06;;;25.61;57.24
82743;BME280;72483;50.656;7.216;2023-09-18T06:27:22;99973.78;;;25.61;57.16
82743;BME280;72483;50.656;7.216;2023-09-18T06:29:49;99967.22;;;25.44;53.60
82743;BME280;72483;50.656;7.216;2023-09-18T06:32:17;99956.81;;;25.21;55.45
82743;BME280;72483;50.656;7.216;2023-09-18T06:34:43;99964.25;;;24.89;55.36
82743;BME280;72483;50.656;7.216;2023-09-18T06:37:10;99976.19;;;24.74;54.74
82743;BME280;72483;50.656;7.216;2023-09-18T06:39:37;99974.16;;;24.62;54.04
82743;BME280;72483;50.656;7.216;2023-09-18T06:42:05;99971.41;;;24.29;53.53
82743;BME280;72483;50.656;7.216;2023-09-18T06:44:31;99964.47;;;24.27;53.93
82743;BME280;72483;50.656;7.216;2023-09-18T06:46:58;99971.19;;;24.34;53.60
82743;BME280;72483;50.656;7.216;2023-09-18T06:49:25;99972.13;;;24.38;53.07
82743;BME280;72483;50.656;7.216;2023-09-18T06:51:52;99979.50;;;24.31;54.00
82743;BME280;72483;50.656;7.216;2023-09-18T06:54:19;99995.69;;;24.34;54.27
82743;BME280;72483;50.656;7.216;2023-09-18T06:56:45;100008.25;;;24.36;54.18
82743;BME280;72483;50.656;7.216;2023-09-18T06:59:12;100007.53;;;24.39;53.21
82743;BME280;72483;50.656;7.216;2023-09-18T07:01:39;100017.38;;;24.33;53.36
82743;BME280;72483;50.656;7.216;2023-09-18T07:04:06;100011.53;;;24.26;54.07
82743;BME280;72483;50.656;7.216;2023-09-18T07:06:34;100007.50;;;24.27;54.14
82743;BME280;72483;50.656;7.216;2023-09-18T07:09:01;100017.16;;;24.26;54.19
82743;BME280;72483;50.656;7.216;2023-09-18T07:11:30;100012.91;;;24.20;54.32
82743;BME280;72483;50.656;7.216;2023-09-18T07:13:56;100016.41;;;23.97;54.17
82743;BME280;72483;50.656;7.216;2023-09-18T07:16:22;100017.28;;;24.09;54.21
82743;BME280;72483;50.656;7.216;2023-09-18T07:18:50;100012.63;;;24.13;54.65
82743;BME280;72483;50.656;7.216;2023-09-18T07:21:16;100011.81;;;24.13;54.66
82743;BME280;72483;50.656;7.216;2023-09-18T07:23:45;100011.81;;;24.13;53.91
82743;BME280;72483;50.656;7.216;2023-09-18T07:26:12;100011.13;;;24.16;54.33
82743;BME280;72483;50.656;7.216;2023-09-18T07:28:39;100015.47;;;24.13;54.70
82743;BME280;72483;50.656;7.216;2023-09-18T07:31:07;100021.81;;;24.02;55.18
82743;BME280;72483;50.656;7.216;2023-09-18T07:33:34;100020.72;;;23.94;55.68
82743;BME280;72483;50.656;7.216;2023-09-18T07:36:00;100015.88;;;23.82;55.32
82743;BME280;72483;50.656;7.216;2023-09-18T07:38:27;100035.47;;;23.91;54.70
82743;BME280;72483;50.656;7.216;2023-09-18T07:40:55;100024.50;;;23.98;54.65
82743;BME280;72483;50.656;7.216;2023-09-18T07:43:23;100028.06;;;24.07;54.60
82743;BME280;72483;50.656;7.216;2023-09-18T07:45:50;100033.00;;;24.10;54.13
82743;BME280;72483;50.656;7.216;2023-09-18T07:48:16;100044.41;;;24.14;54.27
82743;BME280;72483;50.656;7.216;2023-09-18T07:50:45;100035.88;;;24.22;54.24
82743;BME280;72483;50.656;7.216;2023-09-18T07:53:14;100032.47;;;24.17;54.13
82743;BME280;72483;50.656;7.216;2023-09-18T07:55:41;100039.47;;;24.11;54.41
82743;BME280;72483;50.656;7.216;2023-09-18T07:58:09;100048.41;;;24.13;54.36
82743;BME280;72483;50.656;7.216;2023-09-18T08:00:36;100064.16;;;24.26;54.57
82743;BME280;72483;50.656;7.216;2023-09-18T08:03:03;100061.56;;;24.21;54.12
82743;BME280;72483;50.656;7.216;2023-09-18T08:05:30;100078.53;;;24.12;54.11
82743;BME280;72483;50.656;7.216;2023-09-18T08:07:57;100074.59;;;24.05;54.57
82743;BME280;72483;50.656;7.216;2023-09-18T08:10:24;100063.94;;;24.10;54.63
82743;BME280;72483;50.656;7.216;2023-09-18T08:12:51;100082.78;;;24.18;54.00
82743;BME280;72483;50.656;7.216;2023-09-18T08:15:19;100087.84;;;24.25;54.18
82743;BME280;72483;50.656;7.216;2023-09-18T08:17:46;100087.28;;;24.31;54.04
82743;BME280;72483;50.656;7.216;2023-09-18T08:20:14;100080.66;;;24.15;53.64
82743;BME280;72483;50.656;7.216;2023-09-18T08:22:41;100079.13;;;24.18;53.88
82743;BME280;72483;50.656;7.216;2023-09-18T08:25:08;100099.09;;;24.25;53.73
82743;BME280;72483;50.656;7.216;2023-09-18T08:27:36;100102.59;;;24.22;53.94
82743;BME280;72483;50.656;7.216;2023-09-18T08:30:06;100107.81;;;24.32;53.63
82743;BME280;72483;50.656;7.216;2023-09-18T08:32:34;100104.88;;;24.28;53.09
82743;BME280;72483;50.656;7.216;2023-09-18T08:35:00;100100.53;;;24.31;53.20
82743;BME280;72483;50.656;7.216;2023-09-18T08:37:27;100102.88;;;24.29;53.19
82743;BME280;72483;50.656;7.216;2023-09-18T08:39:54;100108.47;;;24.17;53.51
82743;BME280;72483;50.656;7.216;2023-09-18T08:42:21;100125.53;;;24.12;53.53
82743;BME280;72483;50.656;7.216;2023-09-18T08:44:51;100114.09;;;24.17;53.33
82743;BME280;72483;50.656;7.216;2023-09-18T08:47:18;100112.34;;;24.24;53.38
82743;BME280;72483;50.656;7.216;2023-09-18T08:49:48;100096.56;;;24.11;53.33
82743;BME280;72483;50.656;7.216;2023-09-18T08:52:16;100095.88;;;24.14;53.49
82743;BME280;72483;50.656;7.216;2023-09-18T08:54:43;100100.72;;;24.14;53.46
82743;BME280;72483;50.656;7.216;2023-09-18T08:57:10;100111.97;;;24.05;53.95
82743;BME280;72483;50.656;7.216;2023-09-18T08:59:39;100113.59;;;24.15;53.38
82743;BME280;72483;50.656;7.216;2023-09-18T09:02:06;100109.28;;;24.17;52.98
82743;BME280;72483;50.656;7.216;2023-09-18T09:04:32;100117.84;;;24.21;53.20
82743;BME280;72483;50.656;7.216;2023-09-18T09:07:00;100109.28;;;24.17;53.17
82743;BME280;72483;50.656;7.216;2023-09-18T09:09:27;100112.44;;;24.16;52.89
82743;BME280;72483;50.656;7.216;2023-09-18T09:11:53;100122.31;;;24.22;53.34
82743;BME280;72483;50.656;7.216;2023-09-18T09:14:20;100133.34;;;24.06;52.98
82743;BME280;72483;50.656;7.216;2023-09-18T09:16:54;100136.75;;;23.91;53.58
82743;BME280;72483;50.656;7.216;2023-09-18T09:19:29;100132.88;;;23.75;54.27
82743;BME280;72483;50.656;7.216;2023-09-18T09:21:56;100142.03;;;23.92;54.29
82743;BME280;72483;50.656;7.216;2023-09-18T09:24:38;100128.94;;;23.97;53.78
82743;BME280;72483;50.656;7.216;2023-09-18T09:27:05;100128.31;;;23.91;54.06
82743;BME280;72483;50.656;7.216;2023-09-18T09:29:32;100117.69;;;23.97;53.99
82743;BME280;72483;50.656;7.216;2023-09-18T09:32:12;100125.00;;;23.89;53.97
82743;BME280;72483;50.656;7.216;2023-09-18T09:34:40;100128.56;;;23.77;54.30
82743;BME280;72483;50.656;7.216;2023-09-18T09:37:07;100123.44;;;23.79;54.37
82743;BME280;72483;50.656;7.216;2023-09-18T09:39:33;100118.72;;;23.92;54.28
82743;BME280;72483;50.656;7.216;2023-09-18T09:42:02;100122.19;;;23.89;54.08
82743;BME280;72483;50.656;7.216;2023-09-18T09:44:31;100123.78;;;23.78;54.36
82743;BME280;72483;50.656;7.216;2023-09-18T09:46:59;100125.44;;;23.79;54.66
82743;BME280;72483;50.656;7.216;2023-09-18T09:49:25;100124.31;;;23.71;54.42
82743;BME280;72483;50.656;7.216;2023-09-18T09:51:54;100123.31;;;23.67;54.27
82743;BME280;72483;50.656;7.216;2023-09-18T09:54:32;100120.50;;;23.76;54.71
82743;BME280;72483;50.656;7.216;2023-09-18T09:57:03;100125.59;;;23.74;54.66
82743;BME280;72483;50.656;7.216;2023-09-18T09:59:30;100125.47;;;23.70;54.70
82743;BME280;72483;50.656;7.216;2023-09-18T10:02:00;100124.31;;;23.71;54.61
82743;BME280;72483;50.656;7.216;2023-09-18T10:04:29;100118.81;;;23.75;54.44
82743;BME280;72483;50.656;7.216;2023-09-18T10:07:06;100112.03;;;23.76;54.63
82743;BME280;72483;50.656;7.216;2023-09-18T10:09:34;100102.94;;;24.00;54.32
82743;BME280;72483;50.656;7.216;2023-09-18T10:12:10;100109.94;;;24.14;53.79
82743;BME280;72483;50.656;7.216;2023-09-18T10:14:37;100097.06;;;24.13;54.16
82743;BME280;72483;50.656;7.216;2023-09-18T10:17:11;100103.75;;;24.21;53.86
82743;BME280;72483;50.656;7.216;2023-09-18T10:19:45;100107.34;;;24.30;53.41
82743;BME280;72483;50.656;7.216;2023-09-18T10:22:22;100111.19;;;24.25;53.77
82743;BME280;72483;50.656;7.216;2023-09-18T10:24:54;100099.25;;;24.28;53.87
82743;BME280;72483;50.656;7.216;2023-09-18T10:27:27;100109.53;;;24.24;54.32
82743;BME280;72483;50.656;7.216;2023-09-18T10:29:53;100102.47;;;24.18;53.88
82743;BME280;72483;50.656;7.216;2023-09-18T10:32:21;100103.56;;;24.26;54.23
82743;BME280;72483;50.656;7.216;2023-09-18T10:34:48;100106.03;;;24.27;54.05
82743;BME280;72483;50.656;7.216;2023-09-18T10:37:15;100110.41;;;24.37;53.91
82743;BME280;72483;50.656;7.216;2023-09-18T10:39:42;100120.66;;;24.41;53.51
82743;BME280;72483;50.656;7.216;2023-09-18T10:42:10;100132.50;;;24.47;53.08
82743;BME280;72483;50.656;7.216;2023-09-18T10:44:38;100119.00;;;24.40;52.81
82743;BME280;72483;50.656;7.216;2023-09-18T10:47:06;100128.03;;;24.46;52.96
82743;BME280;72483;50.656;7.216;2023-09-18T10:49:34;100108.13;;;24.51;52.89
82743;BME280;72483;50.656;7.216;2023-09-18T10:52:02;100112.03;;;24.59;52.73
82743;BME280;72483;50.656;7.216;2023-09-18T10:54:30;100115.94;;;24.66;52.64
82743;BME280;72483;50.656;7.216;2023-09-18T10:56:57;100117.72;;;24.71;52.19
82743;BME280;72483;50.656;7.216;2023-09-18T10:59:24;100126.78;;;24.76;52.07
82743;BME280;72483;50.656;7.216;2023-09-18T11:01:51;100121.97;;;24.77;51.96
82743;BME280;72483;50.656;7.216;2023-09-18T11:04:19;100126.00;;;24.88;51.25
82743;BME280;72483;50.656;7.216;2023-09-18T11:07:01;100119.53;;;24.87;51.00
82743;BME280;72483;50.656;7.216;2023-09-18T11:09:31;100125.91;;;24.97;50.77
82743;BME280;72483;50.656;7.216;2023-09-18T11:12:03;100116.50;;;24.92;51.07
82743;BME280;72483;50.656;7.216;2023-09-18T11:14:42;100129.44;;;25.06;50.80
82743;BME280;72483;50.656;7.216;2023-09-18T11:17:28;100141.66;;;25.10;50.19
82743;BME280;72483;50.656;7.216;2023-09-18T11:20:05;100131.78;;;25.04;49.84
82743;BME280;72483;50.656;7.216;2023-09-18T11:22:34;100124.16;;;25.04;50.03
82743;BME280;72483;50.656;7.216;2023-09-18T11:25:35;100133.34;;;25.13;49.63
82743;BME280;72483;50.656;7.216;2023-09-18T11:28:03;100131.94;;;25.31;49.01
82743;BME280;72483;50.656;7.216;2023-09-18T11:30:32;100133.72;;;25.24;48.73
82743;BME280;72483;50.656;7.216;2023-09-18T11:33:03;100121.25;;;25.25;48.39
82743;BME280;72483;50.656;7.216;2023-09-18T11:35:31;100124.19;;;25.28;48.53
82743;BME280;72483;50.656;7.216;2023-09-18T11:38:05;100109.88;;;25.33;48.29
82743;BME280;72483;50.656;7.216;2023-09-18T11:40:33;100100.09;;;25.31;48.15
82743;BME280;72483;50.656;7.216;2023-09-18T11:43:23;100097.66;;;25.41;48.31
82743;BME280;72483;50.656;7.216;2023-09-18T11:45:53;100091.41;;;25.48;47.63
82743;BME280;72483;50.656;7.216;2023-09-18T11:48:22;100100.25;;;25.46;47.96
82743;BME280;72483;50.656;7.216;2023-09-18T11:50:53;100088.22;;;25.37;48.27
82743;BME280;72483;50.656;7.216;2023-09-18T11:53:20;100078.84;;;25.45;48.21
82743;BME280;72483;50.656;7.216;2023-09-18T11:55:47;100080.38;;;25.43;48.04
82743;BME280;72483;50.656;7.216;2023-09-18T11:58:14;100074.84;;;25.34;48.04
82743;BME280;72483;50.656;7.216;2023-09-18T12:00:41;100068.28;;;25.42;47.87
82743;BME280;72483;50.656;7.216;2023-09-18T12:03:19;100068.63;;;25.41;47.55
82743;BME280;72483;50.656;7.216;2023-09-18T12:05:55;100067.00;;;25.40;47.55
82743;BME280;72483;50.656;7.216;2023-09-18T12:08:23;100076.03;;;25.45;47.38
82743;BME280;72483;50.656;7.216;2023-09-18T12:10:51;100067.91;;;25.44;47.44
82743;BME280;72483;50.656;7.216;2023-09-18T12:13:18;100067.22;;;25.35;47.82
82743;BME280;72483;50.656;7.216;2023-09-18T12:15:45;100072.16;;;25.38;47.62
82743;BME280;72483;50.656;7.216;2023-09-18T12:18:14;100064.06;;;25.36;47.83
82743;BME280;72483;50.656;7.216;2023-09-18T12:20:47;100066.75;;;25.45;47.33
82743;BME280;72483;50.656;7.216;2023-09-18T12:23:15;100051.09;;;25.47;47.11
82743;BME280;72483;50.656;7.216;2023-09-18T12:25:45;100054.53;;;25.53;45.93
82743;BME280;72483;50.656;7.216;2023-09-18T12:28:13;100037.00;;;25.47;46.67
82743;BME280;72483;50.656;7.216;2023-09-18T12:30:41;100031.97;;;25.53;46.03
82743;BME280;72483;50.656;7.216;2023-09-18T12:33:08;100050.53;;;25.54;46.36
82743;BME280;72483;50.656;7.216;2023-09-18T12:35:35;100044.56;;;25.56;46.51
82743;BME280;72483;50.656;7.216;2023-09-18T12:38:13;100049.72;;;25.54;46.27
82743;BME280;72483;50.656;7.216;2023-09-18T12:40:41;100042.47;;;25.53;46.88
82743;BME280;72483;50.656;7.216;2023-09-18T12:43:10;100049.72;;;25.54;46.80
82743;BME280;72483;50.656;7.216;2023-09-18T12:45:37;100055.03;;;25.55;46.60
82743;BME280;72483;50.656;7.216;2023-09-18T12:48:06;100058.06;;;25.62;45.80
82743;BME280;72483;50.656;7.216;2023-09-18T12:50:32;100064.50;;;25.63;45.52
82743;BME280;72483;50.656;7.216;2023-09-18T12:53:07;100052.06;;;25.64;45.31
82743;BME280;72483;50.656;7.216;2023-09-18T12:55:34;100058.88;;;25.63;45.19
82743;BME280;72483;50.656;7.216;2023-09-18T12:58:02;100058.41;;;25.61;45.76